createdAt,value
2022-10-26T00:00:30.401Z,71.18
2022-10-26T00:03:07.219Z,72.46
2022-10-26T00:05:35.532Z,72.18
2022-10-26T00:08:02.708Z,72.20
2022-10-26T00:10:41.228Z,73.19
2022-10-26T00:13:19.694Z,72.88
2022-10-26T00:15:51.109Z,73.49
2022-10-26T00:18:20.162Z,73.24
2022-10-26T00:20:49.321Z,73.44
2022-10-26T00:23:16.334Z,73.43
2022-10-26T00:26:03.219Z,73.11
2022-10-26T00:28:30.316Z,73.67
2022-10-26T00:31:01.072Z,72.70
2022-10-26T00:33:28.287Z,72.22
2022-10-26T00:35:55.561Z,74.38
2022-10-26T00:38:26.532Z,74.20
2022-10-26T00:43:58.811Z,74.28
2022-10-26T00:46:36.141Z,73.61
2022-10-26T00:49:05.787Z,72.42
2022-10-26T00:51:34.150Z,73.33
2022-10-26T00:54:12.697Z,74.30
2022-10-26T00:56:53.413Z,73.34
2022-10-26T00:59:25.405Z,73.78
2022-10-26T01:02:06.984Z,74.96
2022-10-26T01:05:04.242Z,78.48
2022-10-26T01:07:39.953Z,78.62
2022-10-26T01:10:14.257Z,75.55
2022-10-26T01:12:41.455Z,75.29
2022-10-26T01:15:15.480Z,76.25
2022-10-26T01:17:53.070Z,75.61
2022-10-26T01:20:28.360Z,75.92
2022-10-26T01:23:09.667Z,75.76
2022-10-26T01:25:51.680Z,77.09
2022-10-26T01:28:39.517Z,77.83
2022-10-26T01:31:15.706Z,78.10
2022-10-26T01:34:10.689Z,80.63
2022-10-26T01:36:48.473Z,80.58
2022-10-26T01:39:33.303Z,79.41
2022-10-26T01:42:07.682Z,78.60
2022-10-26T01:45:09.799Z,80.22
2022-10-26T01:47:38.367Z,79.01
2022-10-26T01:50:08.792Z,79.99
2022-10-26T01:52:37.919Z,79.62
2022-10-26T01:55:31.648Z,77.71
2022-10-26T01:58:03.958Z,77.45
2022-10-26T02:00:42.482Z,77.49
2022-10-26T02:03:22.320Z,77.54
2022-10-26T02:06:07.255Z,76.79
2022-10-26T02:08:37.222Z,75.18
2022-10-26T02:11:22.246Z,74.80
2022-10-26T02:13:49.345Z,76.35
2022-10-26T02:16:34.922Z,78.92
2022-10-26T02:19:21.121Z,81.06
2022-10-26T02:21:58.045Z,77.34
2022-10-26T02:24:25.850Z,77.09
2022-10-26T02:26:56.012Z,76.22
2022-10-26T02:29:24.707Z,76.78
2022-10-26T02:31:55.244Z,76.51
2022-10-26T02:34:26.149Z,75.61
2022-10-26T02:36:58.421Z,75.54
2022-10-26T02:39:26.369Z,79.12
2022-10-26T02:42:15.174Z,77.55
2022-10-26T02:44:46.874Z,77.43
2022-10-26T02:47:18.637Z,77.54
2022-10-26T03:56:52.793Z,79.41
2022-10-26T03:59:31.382Z,79.58
2022-10-26T04:02:00.574Z,78.37
2022-10-26T04:04:36.147Z,78.60
2022-10-26T04:07:03.274Z,78.46
2022-10-26T04:09:36.405Z,77.54
2022-10-26T04:12:14.739Z,76.73
2022-10-26T04:14:44.390Z,76.97
2022-10-26T04:17:14.193Z,76.66
2022-10-26T04:19:42.860Z,78.66
2022-10-26T04:22:18.087Z,79.30
2022-10-26T04:24:46.774Z,80.15
2022-10-26T04:27:19.618Z,78.76
2022-10-26T04:29:49.578Z,77.71
2022-10-26T04:32:19.271Z,77.35
2022-10-26T04:35:09.963Z,77.39
2022-10-26T04:37:41.429Z,78.29
2022-10-26T04:40:12.362Z,77.25
2022-10-26T04:42:48.886Z,80.02
2022-10-26T04:45:41.330Z,79.34
2022-10-26T04:48:41.382Z,77.98
2022-10-26T04:51:25.365Z,78.51
2022-10-26T04:53:59.230Z,77.67
2022-10-26T04:56:26.719Z,77.46
2022-10-26T04:59:21.703Z,80.87
2022-10-26T05:01:52.949Z,80.12
2022-10-26T05:04:52.766Z,80.81
2022-10-26T05:07:31.438Z,80.35
2022-10-26T05:10:01.548Z,78.52
2022-10-26T05:12:36.045Z,78.54
2022-10-26T05:15:08.774Z,81.74
2022-10-26T05:17:39.339Z,82.91
2022-10-26T05:20:23.748Z,83.85
2022-10-26T05:23:15.328Z,82.02
2022-10-26T05:25:51.077Z,81.43
2022-10-26T05:28:40.392Z,83.22
2022-10-26T05:31:12.909Z,84.04
2022-10-26T05:34:07.145Z,84.13
2022-10-26T05:36:34.100Z,84.51
2022-10-26T05:39:00.910Z,85.17
2022-10-26T05:41:28.744Z,87.54
2022-10-26T05:43:55.941Z,86.49
2022-10-26T05:46:30.317Z,84.97
2022-10-26T05:48:57.727Z,85.70
2022-10-26T05:51:25.157Z,87.05
2022-10-26T05:53:55.621Z,88.43
2022-10-26T05:56:50.845Z,90.70
2022-10-26T06:09:13.530Z,85.32
2022-10-26T06:12:06.160Z,87.91
2022-10-26T06:17:54.340Z,88.86
2022-10-26T06:20:46.246Z,84.90
2022-10-26T06:26:58.948Z,82.47
2022-10-26T06:29:58.558Z,86.65
2022-10-26T06:36:10.881Z,85.01
2022-10-26T06:51:08.899Z,90.20
2022-10-26T06:54:07.365Z,89.05
2022-10-26T06:56:37.070Z,89.04
2022-10-26T06:59:27.027Z,88.33
2022-10-26T07:02:04.383Z,90.55
2022-10-26T07:04:51.063Z,89.28
2022-10-26T07:07:31.039Z,90.62
2022-10-26T07:10:18.538Z,87.70
2022-10-26T07:13:11.064Z,88.51
2022-10-26T07:16:03.397Z,87.08
2022-10-26T07:18:41.222Z,86.47
2022-10-26T07:21:18.044Z,86.09
2022-10-26T07:23:58.753Z,86.80
2022-10-26T07:26:33.979Z,87.05
2022-10-26T07:29:39.796Z,86.52
2022-10-26T07:32:34.759Z,87.11
2022-10-26T07:35:11.568Z,88.33
2022-10-26T07:37:51.062Z,89.25
2022-10-26T07:40:34.346Z,88.90
2022-10-26T07:43:05.468Z,86.82
2022-10-26T07:45:39.361Z,86.12
2022-10-26T07:48:06.897Z,83.82
2022-10-26T07:50:36.847Z,85.77
2022-10-26T07:53:03.952Z,84.49
2022-10-26T07:55:31.221Z,88.63
2022-10-26T07:58:00.863Z,87.14
2022-10-26T08:00:30.672Z,88.40
2022-10-26T08:03:00.436Z,87.08
2022-10-26T08:05:33.031Z,86.66
2022-10-26T08:08:20.163Z,88.51
2022-10-26T08:10:53.693Z,87.25
2022-10-26T08:13:21.527Z,86.51
2022-10-26T08:15:56.706Z,89.88
2022-10-26T08:18:23.695Z,88.00
2022-10-26T08:20:50.521Z,87.24
2022-10-26T08:23:17.365Z,88.12
2022-10-26T08:25:44.216Z,90.85
2022-10-26T08:28:11.349Z,90.78
2022-10-26T08:30:38.228Z,88.90
2022-10-26T08:33:12.145Z,87.47
2022-10-26T08:35:39.291Z,87.12
2022-10-26T08:38:09.579Z,87.94
2022-10-26T08:40:41.051Z,86.59
2022-10-26T08:43:08.119Z,86.65
2022-10-26T08:45:46.910Z,90.37
2022-10-26T08:48:26.918Z,87.90
2022-10-26T08:50:55.955Z,86.30
2022-10-26T08:53:28.711Z,86.32
2022-10-26T08:56:02.379Z,85.71
2022-10-26T08:58:32.998Z,86.39
2022-10-26T09:01:03.852Z,87.20
2022-10-26T09:03:30.782Z,85.28
2022-10-26T09:06:12.329Z,87.45
2022-10-26T09:08:52.248Z,85.51
2022-10-26T09:11:25.193Z,86.04
2022-10-26T09:14:01.409Z,82.45
2022-10-26T09:16:38.249Z,82.37
2022-10-26T09:19:23.894Z,80.87
2022-10-26T09:22:09.409Z,80.75
2022-10-26T09:24:41.751Z,78.90
2022-10-26T09:27:28.898Z,78.75
2022-10-26T09:30:08.180Z,77.54
2022-10-26T09:32:49.100Z,79.77
2022-10-26T09:35:26.551Z,78.47
2022-10-26T09:37:56.211Z,77.37
2022-10-26T09:40:42.096Z,77.31
2022-10-26T09:43:22.079Z,77.36
2022-10-26T09:46:06.696Z,82.33
2022-10-26T09:48:37.677Z,83.24
2022-10-26T09:51:05.090Z,84.03
2022-10-26T09:53:35.562Z,83.06
2022-10-26T09:56:06.156Z,83.34
2022-10-26T09:58:38.531Z,81.57
2022-10-26T10:01:05.755Z,78.77
2022-10-26T10:03:34.585Z,77.80
2022-10-26T10:06:39.409Z,79.59
2022-10-26T10:09:14.039Z,80.58
2022-10-26T10:11:44.804Z,79.07
2022-10-26T10:14:23.727Z,79.19
2022-10-26T10:17:02.846Z,77.24
2022-10-26T10:19:34.946Z,78.37
2022-10-26T10:27:56.807Z,75.49
2022-10-26T10:30:29.562Z,74.36
2022-10-26T10:33:08.596Z,72.81
2022-10-26T10:35:35.999Z,70.48
2022-10-26T10:38:05.396Z,71.42
2022-10-26T10:40:37.761Z,72.37
2022-10-26T10:43:13.772Z,72.86
2022-10-26T10:45:43.820Z,71.30
2022-10-26T10:48:13.892Z,69.14
2022-10-26T10:51:02.491Z,69.67
2022-10-26T11:00:11.747Z,67.91
2022-10-26T11:03:03.513Z,70.52
2022-10-26T11:05:51.256Z,73.11
2022-10-26T11:08:45.267Z,72.14
2022-10-26T11:11:21.724Z,73.65
2022-10-26T11:14:22.480Z,72.60
2022-10-26T11:17:01.882Z,74.42
2022-10-26T11:19:52.431Z,77.04
2022-10-26T11:22:28.444Z,75.65
2022-10-26T11:25:21.142Z,74.57
2022-10-26T11:28:08.997Z,73.70
2022-10-26T11:30:49.851Z,70.86
2022-10-26T11:33:23.814Z,70.45
2022-10-26T11:35:59.265Z,69.89
2022-10-26T11:38:46.609Z,69.21
2022-10-26T11:41:33.119Z,72.05
2022-10-26T11:44:02.874Z,71.98
2022-10-26T11:46:37.467Z,70.81
2022-10-26T11:49:15.180Z,69.41
2022-10-26T11:51:57.844Z,68.71
2022-10-26T11:54:30.106Z,67.44
2022-10-26T11:59:51.967Z,66.42
2022-10-26T12:02:21.167Z,65.04
2022-10-26T12:04:52.678Z,64.42
2022-10-26T12:07:33.124Z,63.98
2022-10-26T12:10:07.011Z,63.01
2022-10-26T12:12:37.569Z,62.66
2022-10-26T12:15:08.796Z,61.10
2022-10-26T12:17:38.353Z,60.46
2022-10-26T12:20:20.889Z,61.59
2022-10-26T12:22:48.026Z,60.46
2022-10-26T12:25:15.613Z,60.80
2022-10-26T12:27:42.962Z,60.98
2022-10-26T12:30:16.412Z,59.67
2022-10-26T12:32:48.824Z,59.45
2022-10-26T12:35:36.035Z,60.25
2022-10-26T12:38:22.755Z,59.11
2022-10-26T12:41:08.139Z,61.54
2022-10-26T12:43:36.505Z,65.06
2022-10-26T12:46:12.813Z,62.99
2022-10-26T12:48:40.003Z,65.52
2022-10-26T12:51:22.878Z,65.97
2022-10-26T12:53:57.024Z,65.65
2022-10-26T12:56:51.489Z,64.12
2022-10-26T13:00:03.178Z,62.80
2022-10-26T13:02:40.989Z,62.84
2022-10-26T13:05:24.877Z,62.33
2022-10-26T13:08:03.539Z,62.47
2022-10-26T13:10:32.908Z,60.83
2022-10-26T13:13:01.078Z,60.55
2022-10-26T13:15:28.195Z,60.11
2022-10-26T13:18:14.885Z,60.72
2022-10-26T13:21:40.601Z,60.28
2022-10-26T13:24:27.834Z,60.16
2022-10-26T13:27:08.549Z,59.68
2022-10-26T13:29:54.216Z,60.06
2022-10-26T13:32:33.220Z,60.18
2022-10-26T13:35:04.299Z,59.63
2022-10-26T13:37:32.801Z,59.42
2022-10-26T13:40:27.095Z,59.03
2022-10-26T13:43:00.944Z,58.51
2022-10-26T13:45:32.235Z,58.33
2022-10-26T13:48:22.868Z,57.96
2022-10-26T13:50:52.644Z,57.82
2022-10-26T13:53:37.639Z,58.58
2022-10-26T13:56:22.923Z,58.87
2022-10-26T13:58:49.748Z,58.00
2022-10-26T14:01:24.116Z,56.88
2022-10-26T14:03:51.954Z,58.35
2022-10-26T14:06:24.211Z,58.70
2022-10-26T14:08:58.612Z,58.32
2022-10-26T14:11:32.883Z,57.53
2022-10-26T14:14:03.824Z,57.87
2022-10-26T14:16:35.545Z,57.57
2022-10-26T14:19:34.322Z,57.33
2022-10-26T14:22:07.285Z,58.14
2022-10-26T14:24:47.857Z,58.15
2022-10-26T14:27:19.450Z,57.95
2022-10-26T14:30:03.668Z,58.64
2022-10-26T14:32:34.348Z,58.22
2022-10-26T14:35:50.381Z,58.77
2022-10-26T14:37:51.758Z,59.05
2022-10-26T14:40:20.910Z,59.03
2022-10-26T14:43:11.428Z,59.04
2022-10-26T14:46:23.529Z,58.57
2022-10-26T14:48:44.213Z,58.35
2022-10-26T14:51:52.612Z,58.16
2022-10-26T15:01:24.896Z,60.57
2022-10-26T15:03:56.423Z,61.07
2022-10-26T15:06:30.215Z,60.50
2022-10-26T15:09:00.374Z,61.59
2022-10-26T15:11:27.890Z,60.87
2022-10-26T15:13:55.303Z,60.78
2022-10-26T15:16:23.444Z,60.30
2022-10-26T15:18:52.536Z,62.53
2022-10-26T15:21:22.453Z,60.86
2022-10-26T15:23:49.918Z,61.47
2022-10-26T15:26:16.888Z,62.14
2022-10-26T15:28:43.820Z,62.57
2022-10-26T15:31:10.650Z,63.00
2022-10-26T15:33:57.694Z,62.58
2022-10-26T15:36:25.376Z,62.27
2022-10-26T15:38:52.247Z,61.88
2022-10-26T15:41:28.175Z,62.06
2022-10-26T15:43:59.677Z,62.55
2022-10-26T15:46:29.736Z,62.83
2022-10-26T15:48:58.098Z,64.33
2022-10-26T15:51:24.928Z,63.86
2022-10-26T15:53:52.003Z,64.29
2022-10-26T15:56:19.843Z,64.12
2022-10-26T15:58:47.432Z,64.36
2022-10-26T16:01:18.095Z,64.47
2022-10-26T16:03:45.077Z,64.38
2022-10-26T16:06:39.691Z,63.97
2022-10-26T16:09:07.509Z,64.09
2022-10-26T16:11:34.393Z,63.79
2022-10-26T16:14:03.708Z,63.89
2022-10-26T16:16:31.078Z,63.73
2022-10-26T16:19:18.311Z,63.78
2022-10-26T16:21:45.317Z,64.01
2022-10-26T16:24:12.175Z,64.50
2022-10-26T16:26:39.210Z,64.45
2022-10-26T16:29:06.160Z,64.57
2022-10-26T16:31:33.319Z,64.65
2022-10-26T16:34:03.205Z,64.91
2022-10-26T16:36:34.333Z,64.11
2022-10-26T16:41:29.554Z,65.47
2022-10-26T16:43:56.597Z,65.10
2022-10-26T16:46:40.408Z,65.04
2022-10-26T16:49:07.507Z,65.09
2022-10-26T16:51:38.953Z,64.60
2022-10-26T16:54:06.296Z,65.85
2022-10-26T16:56:33.244Z,65.94
2022-10-26T16:59:00.053Z,66.03
2022-10-26T17:01:27.150Z,66.38
2022-10-26T17:03:54.618Z,66.79
2022-10-26T17:06:21.880Z,67.16
2022-10-26T17:08:48.725Z,66.89
2022-10-26T17:11:19.970Z,66.79
2022-10-26T17:13:47.112Z,66.67
2022-10-26T17:16:15.193Z,66.74
2022-10-26T17:18:42.602Z,66.21
2022-10-26T17:21:10.511Z,65.83
2022-10-26T17:23:38.706Z,65.84
2022-10-26T17:26:06.745Z,65.66
2022-10-26T17:28:34.168Z,65.24
2022-10-26T17:31:08.495Z,64.75
2022-10-26T17:33:36.087Z,65.89
2022-10-26T17:36:03.456Z,66.06
2022-10-26T17:38:34.355Z,66.95
2022-10-26T17:41:02.740Z,66.87
2022-10-26T17:43:32.873Z,66.52
2022-10-26T17:46:00.561Z,66.14
2022-10-26T17:48:28.238Z,66.65
2022-10-26T17:50:55.403Z,66.48
2022-10-26T17:53:22.469Z,67.78
2022-10-26T17:55:59.924Z,69.75
2022-10-26T17:58:26.869Z,68.53
2022-10-26T18:00:55.978Z,68.41
2022-10-26T18:03:23.328Z,67.57
2022-10-26T18:05:51.725Z,67.83
2022-10-26T18:08:18.670Z,68.29
2022-10-26T18:10:49.304Z,68.48
2022-10-26T18:13:16.391Z,68.53
2022-10-26T18:15:43.527Z,68.34
2022-10-26T18:18:10.538Z,68.27
2022-10-26T18:20:37.682Z,68.24
2022-10-26T18:23:04.625Z,67.89
2022-10-26T18:25:34.217Z,67.99
2022-10-26T18:28:01.246Z,68.50
2022-10-26T18:30:28.095Z,68.24
2022-10-26T18:32:55.145Z,68.77
2022-10-26T18:35:22.006Z,68.18
2022-10-26T18:37:49.104Z,68.76
2022-10-26T18:40:16.311Z,67.86
2022-10-26T18:42:43.207Z,67.61
2022-10-26T18:45:10.079Z,67.93
2022-10-26T18:47:36.828Z,68.38
2022-10-26T18:50:03.985Z,68.75
2022-10-26T18:52:31.088Z,68.55
2022-10-26T18:54:58.009Z,68.59
2022-10-26T18:57:29.365Z,68.66
2022-10-26T18:59:56.190Z,68.45
2022-10-26T19:02:23.271Z,68.62
2022-10-26T19:04:51.843Z,68.73
2022-10-26T19:07:18.745Z,68.68
2022-10-26T19:09:45.647Z,68.54
2022-10-26T19:12:12.514Z,68.37
2022-10-26T19:14:39.445Z,68.37
2022-10-26T19:17:06.221Z,68.66
2022-10-26T19:19:33.047Z,68.32
2022-10-26T19:22:01.258Z,67.83
2022-10-26T19:24:28.453Z,67.97
2022-10-26T19:26:56.858Z,68.21
2022-10-26T19:29:24.072Z,67.80
2022-10-26T19:31:52.485Z,67.65
2022-10-26T19:34:19.988Z,67.34
2022-10-26T19:36:47.537Z,66.69
2022-10-26T19:39:17.710Z,68.79
2022-10-26T19:41:45.509Z,69.85
2022-10-26T19:44:12.593Z,69.55
2022-10-26T19:46:39.940Z,69.46
2022-10-26T19:49:06.876Z,69.92
2022-10-26T19:51:34.174Z,69.90
2022-10-26T19:54:03.872Z,69.49
2022-10-26T19:56:31.532Z,69.84
2022-10-26T19:58:58.486Z,69.57
2022-10-26T20:01:25.789Z,69.40
2022-10-26T20:03:52.657Z,68.97
2022-10-26T20:06:19.561Z,69.00
2022-10-26T20:08:48.159Z,68.89
2022-10-26T20:11:16.458Z,68.77
2022-10-26T20:13:43.776Z,68.80
2022-10-26T20:16:11.164Z,68.59
2022-10-26T20:18:41.191Z,68.38
2022-10-26T20:21:11.559Z,68.13
2022-10-26T20:23:38.417Z,68.75
2022-10-26T20:28:33.090Z,68.82
2022-10-26T20:31:00.001Z,69.87
2022-10-26T20:33:27.498Z,68.90
2022-10-26T20:35:58.148Z,68.70
2022-10-26T20:38:25.244Z,68.96
2022-10-26T20:40:56.681Z,68.17
2022-10-26T20:43:23.882Z,67.87
2022-10-26T20:45:51.179Z,67.51
2022-10-26T20:48:18.348Z,70.44
2022-10-26T20:50:48.803Z,69.47
2022-10-26T20:53:24.666Z,70.96
2022-10-26T20:55:54.133Z,70.06
2022-10-26T20:58:24.254Z,68.98
2022-10-26T21:00:55.882Z,72.29
2022-10-26T21:03:22.725Z,72.22
2022-10-26T21:05:49.712Z,71.07
2022-10-26T21:08:16.569Z,71.18
2022-10-26T21:10:43.318Z,71.39
2022-10-26T21:13:10.140Z,70.49
2022-10-26T21:15:37.163Z,70.45
2022-10-26T21:18:04.244Z,71.69
2022-10-26T21:20:31.463Z,72.85
2022-10-26T21:22:58.313Z,74.18
2022-10-26T21:25:25.086Z,73.94
2022-10-26T21:27:58.821Z,73.65
2022-10-26T21:30:26.020Z,73.61
2022-10-26T21:32:53.544Z,73.18
2022-10-26T21:35:21.167Z,72.71
2022-10-26T21:37:48.566Z,72.01
2022-10-26T21:40:15.631Z,71.78
2022-10-26T21:42:42.470Z,70.65
2022-10-26T21:45:09.515Z,70.32
2022-10-26T21:47:36.360Z,69.64
2022-10-26T21:50:03.214Z,69.10
2022-10-26T21:52:30.524Z,69.35
2022-10-26T21:54:57.563Z,70.18
2022-10-26T21:57:24.744Z,71.78
2022-10-26T21:59:53.102Z,69.70
2022-10-26T22:02:20.000Z,70.16
2022-10-26T22:04:47.009Z,69.49
2022-10-26T22:07:13.958Z,71.36
2022-10-26T22:09:49.624Z,70.66
2022-10-26T22:12:27.569Z,70.56
2022-10-26T22:14:54.410Z,69.91
2022-10-26T22:17:21.287Z,69.24
2022-10-26T22:19:48.292Z,69.83
2022-10-26T22:22:15.271Z,69.60
2022-10-26T22:24:42.112Z,68.93
2022-10-26T22:27:09.039Z,69.18
2022-10-26T22:29:35.995Z,69.10
2022-10-26T22:32:02.847Z,68.66
2022-10-26T22:34:29.662Z,71.27
2022-10-26T22:36:56.409Z,70.01
2022-10-26T22:39:24.221Z,73.85
2022-10-26T22:41:51.028Z,77.24
2022-10-26T22:44:17.979Z,74.12
2022-10-26T22:46:44.806Z,73.35
2022-10-26T22:49:11.725Z,72.84
2022-10-26T22:51:38.546Z,72.92
2022-10-26T22:54:05.621Z,72.02
2022-10-26T22:56:33.341Z,70.78
2022-10-26T22:59:00.558Z,70.12
2022-10-26T23:01:29.060Z,69.88
2022-10-26T23:03:56.447Z,70.67
2022-10-26T23:06:24.375Z,72.93
2022-10-26T23:08:51.204Z,71.69
2022-10-26T23:11:19.090Z,70.70
2022-10-26T23:13:46.276Z,70.13
2022-10-26T23:16:14.437Z,69.89
2022-10-26T23:18:41.616Z,69.41
2022-10-26T23:21:09.641Z,69.06
2022-10-26T23:23:37.171Z,68.48
2022-10-26T23:26:08.363Z,67.98
2022-10-26T23:28:36.000Z,68.47
2022-10-26T23:31:02.814Z,67.81
2022-10-26T23:33:29.540Z,67.93
2022-10-26T23:35:56.487Z,67.15
2022-10-26T23:38:23.469Z,67.26
2022-10-26T23:40:54.185Z,66.75
2022-10-26T23:43:21.699Z,69.85
2022-10-26T23:45:48.870Z,71.34
2022-10-26T23:48:16.081Z,68.56
2022-10-26T23:50:43.633Z,68.94
2022-10-26T23:53:10.919Z,69.09
2022-10-26T23:55:37.752Z,68.90
2022-10-26T23:58:04.684Z,71.58
